Time;durP1;ratioP1;P1;durP2;ratioP2;P2;SDS_P1;SDS_P2;PMS_P1;PMS_P2;Temp;Humidity;BMP_temperature;BMP_pressure;BME280_temperature;BME280_humidity;BME280_pressure;Samples;Min_cycle;Max_cycle;Signal;HPM_P1;HPM_P2
2023/03/28 00:01:57;;;;;;;9.05;1.83;;;2.60;99.90;;;;;;5036687;28;20076;-66
2023/03/28 00:04:22;;;;;;;8.02;2.00;;;2.60;99.90;;;;;;5035716;28;20048;-66
2023/03/28 00:06:49;;;;;;;8.45;1.83;;;2.60;99.90;;;;;;5037088;28;20400;-66
2023/03/28 00:09:16;;;;;;;8.50;2.03;;;2.50;99.90;;;;;;5019059;28;20053;-66
2023/03/28 00:11:43;;;;;;;9.88;2.25;;;2.50;99.90;;;;;;5054585;28;20116;-65
2023/03/28 00:14:09;;;;;;;7.40;1.77;;;2.50;99.90;;;;;;5052940;28;20478;-66
2023/03/28 00:16:38;;;;;;;13.65;2.53;;;2.40;99.90;;;;;;5036931;28;20178;-66
2023/03/28 00:19:07;;;;;;;6.68;1.60;;;2.30;99.90;;;;;;5036279;28;20079;-66
2023/03/28 00:21:35;;;;;;;8.13;1.58;;;2.30;99.90;;;;;;5036079;28;20045;-66
2023/03/28 00:24:03;;;;;;;8.68;1.70;;;2.30;99.90;;;;;;5036058;28;20037;-66
2023/03/28 00:26:33;;;;;;;9.52;2.28;;;2.30;99.90;;;;;;5054019;28;20451;-65
2023/03/28 00:29:02;;;;;;;13.93;2.20;;;2.30;99.90;;;;;;5035823;28;20120;-66
2023/03/28 00:31:28;;;;;;;10.00;2.05;;;2.30;99.90;;;;;;5036015;28;20037;-66
2023/03/28 00:33:55;;;;;;;8.55;1.90;;;2.30;99.90;;;;;;5036144;28;20044;-66
2023/03/28 00:36:25;;;;;;;8.40;2.00;;;2.30;99.90;;;;;;5035473;28;20051;-66
2023/03/28 00:39:05;;;;;;;12.07;2.28;;;2.20;99.90;;;;;;5036033;28;20048;-66
2023/03/28 00:41:33;;;;;;;9.82;2.00;;;2.20;99.90;;;;;;5035912;28;20061;-66
2023/03/28 00:44:00;;;;;;;13.40;2.25;;;2.20;99.90;;;;;;5035559;28;20052;-65
2023/03/28 00:46:26;;;;;;;8.10;2.20;;;2.30;99.90;;;;;;5035530;28;20120;-66
2023/03/28 00:48:56;;;;;;;6.28;1.83;;;2.20;99.90;;;;;;5053924;28;20175;-65
2023/03/28 00:51:30;;;;;;;9.07;1.88;;;2.10;99.90;;;;;;5018452;28;20123;-65
2023/03/28 00:53:58;;;;;;;10.35;1.73;;;2.10;99.90;;;;;;5019717;28;20033;-65
2023/03/28 00:56:28;;;;;;;18.42;2.47;;;2.00;99.90;;;;;;5034975;28;20037;-65
2023/03/28 00:58:55;;;;;;;10.52;2.30;;;2.00;99.90;;;;;;5035862;28;20037;-65
2023/03/28 01:01:21;;;;;;;7.03;1.88;;;2.00;99.90;;;;;;5052491;28;20048;-65
2023/03/28 01:03:55;;;;;;;5.80;1.65;;;2.00;99.90;;;;;;5053498;28;20029;-65
2023/03/28 01:06:23;;;;;;;6.47;1.83;;;1.90;99.90;;;;;;5035317;28;20041;-68
2023/03/28 01:08:50;;;;;;;5.10;1.60;;;1.90;99.90;;;;;;5028889;28;20037;-68
2023/03/28 01:11:17;;;;;;;7.72;2.17;;;1.80;99.90;;;;;;5032473;28;20124;-68
2023/03/28 01:13:47;;;;;;;9.77;1.85;;;1.80;99.90;;;;;;5033286;28;20034;-68
2023/03/28 01:16:14;;;;;;;6.35;2.13;;;1.70;99.90;;;;;;5014988;28;20040;-68
2023/03/28 01:18:45;;;;;;;12.43;2.45;;;1.70;99.90;;;;;;5015463;28;20103;-68
2023/03/28 01:21:47;;;;;;;7.03;1.63;;;1.70;99.90;;;;;;5032935;28;20045;-68
2023/03/28 01:24:28;;;;;;;9.52;2.33;;;1.70;99.90;;;;;;5015274;28;20152;-68
2023/03/28 01:27:31;;;;;;;13.35;2.67;;;1.60;99.90;;;;;;4999016;28;20056;-68
2023/03/28 01:30:35;;;;;;;17.52;3.00;;;1.60;99.90;;;;;;5015326;28;20077;-69
2023/03/28 01:33:42;;;;;;;8.98;2.30;;;1.60;99.90;;;;;;5030533;28;20047;-68
2023/03/28 01:36:47;;;;;;;7.57;1.80;;;1.60;99.90;;;;;;4972753;28;20049;-68
2023/03/28 01:39:19;;;;;;;7.47;2.28;;;1.60;99.90;;;;;;5033396;28;20053;-68
2023/03/28 01:42:09;;;;;;;11.27;2.13;;;1.50;99.90;;;;;;5035001;28;20144;-68
2023/03/28 01:44:40;;;;;;;10.95;2.20;;;1.50;99.90;;;;;;5052762;28;20071;-68
2023/03/28 01:47:21;;;;;;;6.55;1.92;;;1.50;99.90;;;;;;5033739;28;20047;-68
2023/03/28 01:50:07;;;;;;;6.95;1.90;;;1.50;99.90;;;;;;5034133;28;20060;-68
2023/03/28 01:52:58;;;;;;;7.75;1.83;;;1.50;99.90;;;;;;5051730;28;20079;-68
2023/03/28 01:55:42;;;;;;;11.75;2.95;;;1.40;99.90;;;;;;5034241;28;20040;-68
2023/03/28 01:58:14;;;;;;;7.47;2.08;;;1.40;99.90;;;;;;5051580;28;20486;-68
2023/03/28 02:00:47;;;;;;;10.77;2.72;;;1.30;99.90;;;;;;5050498;28;20398;-68
2023/03/28 02:03:33;;;;;;;10.77;2.15;;;1.40;99.90;;;;;;5034253;28;20560;-68
2023/03/28 02:06:00;;;;;;;8.52;2.28;;;1.40;99.90;;;;;;5034727;28;20053;-68
2023/03/28 02:08:29;;;;;;;14.02;2.80;;;1.30;99.90;;;;;;5034108;28;20041;-68
2023/03/28 02:10:57;;;;;;;10.52;2.55;;;1.30;99.90;;;;;;5033913;28;20041;-68
2023/03/28 02:13:40;;;;;;;10.80;2.40;;;1.30;99.90;;;;;;5034097;28;20037;-68
2023/03/28 02:16:09;;;;;;;9.80;2.95;;;1.30;99.90;;;;;;5033962;28;20481;-68
2023/03/28 02:18:38;;;;;;;10.70;2.53;;;1.20;99.90;;;;;;5052327;28;20121;-68
2023/03/28 02:21:15;;;;;;;9.05;2.28;;;1.20;99.90;;;;;;5017258;28;20055;-68
2023/03/28 02:23:46;;;;;;;9.20;3.28;;;1.10;99.90;;;;;;5016155;28;20044;-68
2023/03/28 02:26:12;;;;;;;13.38;3.40;;;1.20;99.90;;;;;;5013762;28;20077;-68
2023/03/28 02:28:40;;;;;;;10.52;2.95;;;1.10;99.90;;;;;;4997862;28;20056;-68
2023/03/28 02:31:06;;;;;;;16.75;3.22;;;1.10;99.90;;;;;;5014065;28;20038;-68
2023/03/28 02:33:39;;;;;;;11.27;3.30;;;1.10;99.90;;;;;;4998183;28;20037;-68
2023/03/28 02:36:29;;;;;;;12.27;4.00;;;1.10;99.90;;;;;;5013512;28;20045;-68
2023/03/28 02:39:00;;;;;;;10.30;2.85;;;1.10;99.90;;;;;;5019440;28;20090;-68
2023/03/28 02:41:46;;;;;;;11.18;2.83;;;1.00;99.90;;;;;;5033936;28;20057;-68
2023/03/28 02:44:14;;;;;;;10.52;3.47;;;1.00;99.90;;;;;;5034096;28;20049;-68
2023/03/28 02:46:54;;;;;;;11.63;3.40;;;1.00;99.90;;;;;;5051858;28;20091;-68
2023/03/28 02:49:23;;;;;;;8.60;3.20;;;1.00;99.90;;;;;;5016379;28;20041;-68
2023/03/28 02:51:58;;;;;;;9.80;4.15;;;1.00;99.90;;;;;;5051905;28;20098;-68
2023/03/28 02:54:55;;;;;;;12.43;3.85;;;1.00;99.90;;;;;;5032994;28;20505;-68
2023/03/28 02:57:48;;;;;;;11.80;3.22;;;1.00;99.90;;;;;;5015379;28;20162;-68
2023/03/28 03:00:18;;;;;;;10.38;2.75;;;1.00;99.90;;;;;;5033545;28;20393;-68
2023/03/28 03:02:48;;;;;;;9.07;2.22;;;1.00;99.90;;;;;;5051925;28;20068;-68
2023/03/28 03:05:14;;;;;;;9.00;2.28;;;0.90;99.90;;;;;;5020528;28;20390;-68
2023/03/28 03:07:41;;;;;;;13.48;2.40;;;0.90;99.90;;;;;;5055467;28;20553;-68
2023/03/28 03:10:09;;;;;;;11.52;2.10;;;1.00;99.90;;;;;;5036365;28;20048;-68
2023/03/28 03:12:35;;;;;;;9.07;2.70;;;1.00;99.90;;;;;;5037999;28;20575;-68
2023/03/28 03:15:02;;;;;;;15.32;2.35;;;1.00;99.90;;;;;;5055110;28;20059;-68
2023/03/28 03:17:29;;;;;;;10.07;2.05;;;1.00;99.90;;;;;;5037211;28;20043;-68
2023/03/28 03:19:55;;;;;;;9.30;2.10;;;1.10;99.90;;;;;;5037664;28;20049;-68
2023/03/28 03:22:21;;;;;;;9.15;1.88;;;1.10;99.90;;;;;;5036543;28;20040;-68
2023/03/28 03:24:49;;;;;;;9.93;2.10;;;1.10;99.90;;;;;;5020874;28;20045;-68
2023/03/28 03:27:16;;;;;;;10.93;2.35;;;1.10;99.90;;;;;;5020716;28;20460;-68
2023/03/28 03:29:42;;;;;;;9.05;2.20;;;1.10;99.90;;;;;;5055145;28;20045;-68
2023/03/28 03:32:08;;;;;;;8.07;2.00;;;1.10;99.90;;;;;;5036630;28;20051;-68
2023/03/28 03:34:35;;;;;;;10.95;2.42;;;1.10;99.90;;;;;;5037466;28;20036;-68
2023/03/28 03:37:03;;;;;;;7.97;1.70;;;1.10;99.90;;;;;;5036396;28;20112;-68
2023/03/28 03:39:29;;;;;;;11.10;2.22;;;1.10;99.90;;;;;;5036440;28;20044;-68
2023/03/28 03:41:55;;;;;;;8.45;2.08;;;1.10;99.90;;;;;;5037477;28;20044;-68
2023/03/28 03:44:21;;;;;;;12.15;2.13;;;1.10;99.90;;;;;;5054735;28;20066;-68
2023/03/28 03:46:47;;;;;;;11.98;2.38;;;1.10;99.90;;;;;;5054958;28;20074;-68
2023/03/28 03:49:13;;;;;;;6.70;1.75;;;1.10;99.90;;;;;;5036047;28;20032;-68
2023/03/28 03:51:39;;;;;;;10.05;1.80;;;1.10;99.90;;;;;;5036960;28;20097;-68
2023/03/28 03:54:05;;;;;;;10.80;2.00;;;1.10;99.90;;;;;;5036127;28;20478;-68
2023/03/28 03:56:31;;;;;;;6.50;1.50;;;1.10;99.90;;;;;;5054948;28;20040;-68
2023/03/28 03:58:57;;;;;;;7.25;2.25;;;1.20;99.90;;;;;;5037129;28;20040;-68
2023/03/28 04:01:24;;;;;;;6.85;1.80;;;1.20;99.90;;;;;;5053852;28;20044;-68
2023/03/28 04:03:50;;;;;;;6.80;1.80;;;1.20;99.90;;;;;;5036483;28;20116;-68
2023/03/28 04:06:17;;;;;;;9.18;2.85;;;1.30;99.90;;;;;;5035739;28;20041;-68
2023/03/28 04:08:43;;;;;;;9.38;1.77;;;1.30;99.90;;;;;;5020250;28;20040;-68
2023/03/28 04:11:09;;;;;;;9.95;2.15;;;1.40;99.90;;;;;;5053973;28;20394;-68
2023/03/28 04:13:35;;;;;;;11.18;2.45;;;1.40;99.90;;;;;;5019799;28;20397;-68
2023/03/28 04:16:01;;;;;;;8.45;1.73;;;1.50;99.90;;;;;;5019275;28;20033;-68
2023/03/28 04:18:28;;;;;;;8.80;2.08;;;1.50;99.90;;;;;;5054028;28;20044;-68
2023/03/28 04:20:57;;;;;;;5.40;1.65;;;1.50;99.90;;;;;;5019612;28;20090;-68
2023/03/28 04:23:24;;;;;;;5.75;1.85;;;1.60;99.90;;;;;;5036023;28;20037;-68
2023/03/28 04:25:54;;;;;;;7.28;1.77;;;1.60;99.90;;;;;;5019970;28;20033;-68
2023/03/28 04:28:24;;;;;;;7.55;2.55;;;1.60;99.90;;;;;;5053395;28;20116;-68
2023/03/28 04:30:52;;;;;;;11.73;2.30;;;1.70;99.90;;;;;;5053864;28;20102;-68
2023/03/28 04:33:17;;;;;;;9.07;1.98;;;1.70;99.90;;;;;;5019587;28;20037;-68
2023/03/28 04:35:43;;;;;;;14.70;3.35;;;1.80;99.90;;;;;;5035762;28;20623;-68
2023/03/28 04:38:09;;;;;;;6.90;1.92;;;1.80;99.90;;;;;;5035456;28;20040;-68
2023/03/28 04:40:34;;;;;;;10.05;2.88;;;1.80;99.90;;;;;;5054007;28;20052;-68
2023/03/28 04:43:00;;;;;;;7.88;1.98;;;1.80;99.90;;;;;;5053367;28;20043;-68
2023/03/28 04:45:26;;;;;;;10.23;2.40;;;1.90;99.90;;;;;;5053599;28;20040;-68
2023/03/28 04:47:52;;;;;;;8.73;2.65;;;2.00;99.90;;;;;;5035968;28;20036;-68
2023/03/28 04:50:18;;;;;;;7.55;2.05;;;1.90;99.90;;;;;;5052519;28;20053;-68
2023/03/28 04:52:44;;;;;;;12.00;2.35;;;2.00;99.90;;;;;;5019357;28;20037;-68
2023/03/28 04:55:09;;;;;;;8.38;2.00;;;2.00;99.90;;;;;;5035707;28;20116;-68
2023/03/28 04:57:37;;;;;;;6.15;2.13;;;2.10;99.90;;;;;;5035302;28;20053;-68
2023/03/28 05:00:08;;;;;;;9.32;2.63;;;2.10;99.90;;;;;;5035384;28;20048;-68
2023/03/28 05:02:33;;;;;;;7.88;2.45;;;2.10;99.90;;;;;;5035598;28;20044;-68
2023/03/28 05:04:59;;;;;;;10.95;2.20;;;2.10;99.90;;;;;;5035763;28;20560;-68
2023/03/28 05:07:25;;;;;;;10.52;2.45;;;2.10;99.90;;;;;;5052615;28;20055;-68
2023/03/28 05:09:50;;;;;;;10.55;2.10;;;2.10;99.90;;;;;;5052901;28;20033;-68
2023/03/28 05:12:16;;;;;;;8.85;2.47;;;2.10;99.90;;;;;;5016899;28;20140;-68
2023/03/28 05:14:42;;;;;;;8.98;2.58;;;2.10;99.90;;;;;;5033534;28;20041;-68
2023/03/28 05:17:07;;;;;;;8.52;3.15;;;2.20;99.90;;;;;;5014625;28;20517;-68
2023/03/28 05:19:33;;;;;;;9.93;2.40;;;2.20;99.90;;;;;;5015632;28;20080;-68
2023/03/28 05:21:59;;;;;;;9.15;2.10;;;2.20;99.90;;;;;;5015583;28;20048;-68
2023/03/28 05:24:24;;;;;;;8.30;2.00;;;2.20;99.90;;;;;;5014533;28;20057;-68
2023/03/28 05:26:50;;;;;;;7.50;2.15;;;2.20;99.90;;;;;;5014642;28;20037;-68
2023/03/28 05:29:15;;;;;;;9.55;2.88;;;2.20;99.90;;;;;;5014827;28;20045;-68
2023/03/28 05:31:41;;;;;;;11.30;2.70;;;2.20;99.90;;;;;;5015101;28;20117;-68
2023/03/28 05:34:07;;;;;;;8.40;2.90;;;2.10;99.90;;;;;;5014501;28;20041;-68
2023/03/28 05:36:32;;;;;;;12.32;2.55;;;2.10;99.90;;;;;;5033403;28;20044;-68
2023/03/28 05:38:58;;;;;;;9.10;3.20;;;2.10;99.90;;;;;;4998868;28;20453;-68
2023/03/28 05:41:24;;;;;;;12.52;3.38;;;2.00;99.90;;;;;;4998245;28;20569;-69
2023/03/28 05:43:50;;;;;;;13.75;2.60;;;2.00;99.90;;;;;;5015313;28;20516;-69
2023/03/28 05:46:16;;;;;;;11.15;2.47;;;2.00;99.90;;;;;;5031801;28;20037;-68
2023/03/28 05:48:41;;;;;;;10.98;2.78;;;2.00;99.90;;;;;;5032554;28;20449;-68
2023/03/28 05:51:07;;;;;;;9.68;2.70;;;2.00;99.90;;;;;;5014774;28;20132;-68
2023/03/28 05:53:33;;;;;;;10.65;2.28;;;2.00;99.90;;;;;;5014451;28;20107;-68
2023/03/28 05:55:58;;;;;;;7.25;2.28;;;2.00;99.90;;;;;;5015305;28;20037;-68
2023/03/28 05:58:24;;;;;;;9.57;3.05;;;2.00;99.90;;;;;;5032225;28;20850;-68
2023/03/28 06:00:49;;;;;;;10.30;2.05;;;2.00;99.90;;;;;;5015506;28;20485;-68
2023/03/28 06:03:15;;;;;;;9.00;2.13;;;2.00;99.90;;;;;;5014074;28;20052;-68
2023/03/28 06:05:41;;;;;;;6.55;2.20;;;2.00;99.90;;;;;;4998346;28;20049;-68
2023/03/28 06:08:08;;;;;;;7.53;1.88;;;1.90;99.90;;;;;;5013718;28;20111;-68
2023/03/28 06:10:34;;;;;;;8.23;1.90;;;2.00;99.90;;;;;;4998414;28;20041;-69
2023/03/28 06:13:00;;;;;;;9.02;2.47;;;2.00;99.90;;;;;;5014215;28;20498;-68
2023/03/28 06:15:26;;;;;;;9.35;2.00;;;2.10;99.90;;;;;;5031971;28;20052;-71
2023/03/28 06:17:51;;;;;;;5.95;2.20;;;2.10;99.90;;;;;;5014240;28;20042;-68
2023/03/28 06:20:17;;;;;;;10.98;2.60;;;2.10;99.90;;;;;;5028965;28;20053;-68
2023/03/28 06:22:43;;;;;;;7.93;1.65;;;2.20;99.90;;;;;;5030114;28;20076;-68
2023/03/28 06:25:09;;;;;;;9.45;2.40;;;2.30;99.90;;;;;;5033450;28;20083;-68
2023/03/28 06:27:35;;;;;;;7.60;1.70;;;2.30;99.90;;;;;;5032333;28;20037;-69
2023/03/28 06:30:03;;;;;;;5.72;1.80;;;2.30;99.90;;;;;;5039302;28;20048;-68
2023/03/28 06:32:29;;;;;;;7.70;2.40;;;2.30;99.90;;;;;;5011959;28;20045;-68
2023/03/28 06:34:54;;;;;;;10.32;2.50;;;2.30;99.90;;;;;;5011930;28;20044;-68
2023/03/28 06:37:20;;;;;;;5.43;1.52;;;2.30;99.90;;;;;;5027907;28;20033;-68
2023/03/28 06:39:49;;;;;;;9.07;2.30;;;2.40;99.90;;;;;;4993689;28;20057;-68
2023/03/28 06:42:15;;;;;;;9.10;2.00;;;2.50;99.90;;;;;;4998070;28;20057;-66
2023/03/28 06:44:44;;;;;;;5.82;1.80;;;2.60;99.90;;;;;;5019002;28;20401;-66
2023/03/28 06:47:10;;;;;;;8.75;2.28;;;2.80;99.90;;;;;;4995795;28;20045;-66
2023/03/28 06:49:36;;;;;;;8.90;2.40;;;3.00;99.90;;;;;;4993478;28;20050;-65
2023/03/28 06:52:01;;;;;;;9.77;2.20;;;3.10;99.90;;;;;;5027924;28;20124;-66
2023/03/28 06:54:27;;;;;;;7.47;1.83;;;3.20;99.90;;;;;;4992073;28;20040;-65
2023/03/28 06:56:53;;;;;;;9.35;1.85;;;3.40;99.90;;;;;;5014532;28;20030;-66
2023/03/28 06:59:19;;;;;;;7.93;1.88;;;3.50;99.90;;;;;;5000464;28;20043;-66
2023/03/28 07:01:44;;;;;;;7.03;2.13;;;3.50;99.90;;;;;;5000582;28;20040;-67
2023/03/28 07:04:10;;;;;;;21.17;3.85;;;3.50;99.90;;;;;;5023023;28;20711;-66
2023/03/28 07:06:36;;;;;;;6.95;2.35;;;3.50;99.90;;;;;;5029285;28;20065;-66
2023/03/28 07:09:01;;;;;;;5.63;1.70;;;3.50;99.90;;;;;;4994445;28;20038;-66
2023/03/28 07:11:27;;;;;;;8.02;2.10;;;3.50;99.90;;;;;;4976525;28;20042;-66
2023/03/28 07:13:52;;;;;;;8.30;1.70;;;3.60;99.90;;;;;;4992176;28;20434;-66
2023/03/28 07:16:18;;;;;;;12.80;2.13;;;3.70;99.90;;;;;;4998125;28;20069;-66
2023/03/28 07:18:44;;;;;;;6.45;1.65;;;3.80;99.90;;;;;;5006102;28;20048;-66
2023/03/28 07:21:12;;;;;;;6.50;2.13;;;3.90;99.90;;;;;;4986245;28;20095;-66
2023/03/28 07:23:39;;;;;;;6.40;2.00;;;4.00;99.90;;;;;;5024290;28;20041;-66
2023/03/28 07:26:06;;;;;;;7.32;2.20;;;4.10;99.90;;;;;;5028024;28;20614;-66
2023/03/28 07:28:33;;;;;;;7.80;1.83;;;4.30;99.90;;;;;;4993266;28;20057;-66
2023/03/28 07:31:03;;;;;;;10.95;2.15;;;4.40;99.90;;;;;;4994579;28;20046;-66
2023/03/28 07:33:30;;;;;;;6.65;1.83;;;4.50;99.90;;;;;;5022668;28;20116;-66
2023/03/28 07:35:56;;;;;;;5.88;1.60;;;4.60;99.90;;;;;;5011543;28;20861;-66
2023/03/28 07:38:22;;;;;;;7.78;1.58;;;4.80;99.90;;;;;;5010400;28;20042;-66
2023/03/28 07:40:48;;;;;;;4.93;1.58;;;4.90;99.90;;;;;;5027578;28;20041;-66
2023/03/28 07:43:13;;;;;;;4.90;1.35;;;5.00;99.90;;;;;;5012218;28;20048;-66
2023/03/28 07:45:39;;;;;;;9.30;1.50;;;5.10;99.90;;;;;;5049097;28;20056;-66
2023/03/28 07:48:05;;;;;;;6.15;1.27;;;5.20;99.90;;;;;;5046950;28;20129;-66
2023/03/28 07:50:31;;;;;;;6.50;1.80;;;5.40;99.90;;;;;;5026145;28;20096;-66
2023/03/28 07:52:58;;;;;;;5.15;1.67;;;5.50;99.90;;;;;;5010154;28;20041;-66
2023/03/28 07:55:27;;;;;;;5.93;1.70;;;5.80;99.90;;;;;;5014351;28;20060;-66
2023/03/28 07:57:53;;;;;;;3.80;1.23;;;6.00;99.90;;;;;;5033888;28;20402;-66
2023/03/28 08:00:22;;;;;;;5.40;1.92;;;6.20;99.90;;;;;;5047640;28;20669;-66
2023/03/28 08:02:48;;;;;;;4.20;1.27;;;6.40;99.90;;;;;;5014993;28;20433;-66
2023/03/28 08:05:14;;;;;;;5.15;1.30;;;6.50;99.90;;;;;;5049970;28;20047;-66
2023/03/28 08:07:46;;;;;;;8.30;1.73;;;6.50;99.90;;;;;;5021902;28;20051;-66
2023/03/28 08:10:13;;;;;;;9.48;2.15;;;6.50;99.90;;;;;;5023692;28;20128;-67
2023/03/28 08:12:38;;;;;;;6.45;1.95;;;6.50;99.90;;;;;;5031324;28;20081;-67
2023/03/28 08:15:05;;;;;;;4.63;1.15;;;6.50;99.90;;;;;;5051453;28;20037;-67
2023/03/28 08:17:31;;;;;;;5.45;1.60;;;6.40;99.90;;;;;;5032266;28;20087;-67
2023/03/28 08:19:57;;;;;;;5.72;1.20;;;6.30;99.90;;;;;;5042540;28;20041;-67
2023/03/28 08:22:24;;;;;;;3.67;1.15;;;6.20;99.90;;;;;;5015241;28;20513;-67
2023/03/28 08:24:50;;;;;;;6.68;1.52;;;6.20;99.90;;;;;;5034182;28;20083;-67
2023/03/28 08:27:16;;;;;;;4.40;1.30;;;6.20;99.90;;;;;;5016281;28;20446;-67
2023/03/28 08:29:42;;;;;;;7.78;1.67;;;6.20;99.90;;;;;;5033647;28;20763;-67
2023/03/28 08:32:08;;;;;;;5.28;1.27;;;6.20;99.90;;;;;;5012278;28;20052;-67
2023/03/28 08:34:34;;;;;;;6.10;1.48;;;6.10;99.90;;;;;;5035548;28;20065;-67
2023/03/28 08:36:59;;;;;;;4.45;1.30;;;6.20;99.90;;;;;;5017257;28;20091;-67
2023/03/28 08:39:26;;;;;;;8.27;2.00;;;6.20;99.90;;;;;;5023492;28;20036;-68
2023/03/28 08:41:52;;;;;;;5.47;1.45;;;6.20;99.90;;;;;;5027785;28;20049;-69
2023/03/28 08:44:18;;;;;;;4.28;1.65;;;6.30;99.90;;;;;;4999219;28;20103;-69
2023/03/28 08:46:45;;;;;;;3.40;1.08;;;6.40;99.90;;;;;;4995465;28;20116;-68
2023/03/28 08:49:15;;;;;;;5.15;1.10;;;6.40;99.90;;;;;;5005562;28;20038;-68
2023/03/28 08:51:52;;;;;;;7.13;1.50;;;6.50;99.90;;;;;;5026071;28;20486;-66
2023/03/28 08:54:17;;;;;;;4.38;1.00;;;6.60;99.90;;;;;;5007890;28;20120;-68
2023/03/28 08:56:54;;;;;;;4.55;0.93;;;6.80;99.90;;;;;;5009722;28;20121;-66
2023/03/28 08:59:30;;;;;;;2.58;0.88;;;6.90;99.70;;;;;;5027281;28;20150;-60
2023/03/28 09:01:55;;;;;;;4.30;1.00;;;7.00;99.90;;;;;;4987580;28;20128;-60
2023/03/28 09:04:33;;;;;;;2.85;0.68;;;7.10;99.90;;;;;;5015679;28;20533;-60
2023/03/28 09:07:21;;;;;;;4.00;1.00;;;7.10;99.60;;;;;;5015923;28;20049;-60
2023/03/28 09:10:03;;;;;;;4.30;1.15;;;7.30;99.50;;;;;;4999126;28;20045;-60
2023/03/28 09:12:47;;;;;;;3.83;0.75;;;7.40;98.90;;;;;;5033216;28;20441;-60
2023/03/28 09:15:50;;;;;;;6.57;1.50;;;7.50;98.70;;;;;;5015216;28;20042;-60
2023/03/28 09:18:41;;;;;;;3.85;1.17;;;7.50;98.00;;;;;;5033111;28;20042;-60
2023/03/28 09:21:31;;;;;;;5.60;1.17;;;7.60;97.30;;;;;;4998997;28;20049;-60
2023/03/28 09:24:35;;;;;;;3.85;0.90;;;7.50;97.40;;;;;;5033041;28;20104;-60
2023/03/28 09:27:20;;;;;;;4.53;0.90;;;7.50;96.90;;;;;;4989321;28;20175;-60
2023/03/28 09:29:46;;;;;;;7.85;1.70;;;7.60;96.90;;;;;;5015025;28;20034;-60
2023/03/28 09:32:24;;;;;;;5.07;1.90;;;7.60;97.10;;;;;;5015222;28;20099;-60
2023/03/28 09:34:51;;;;;;;4.90;1.48;;;7.60;96.80;;;;;;5015294;28;20041;-60
2023/03/28 09:37:39;;;;;;;4.97;1.30;;;7.50;96.50;;;;;;5014444;28;20033;-60
2023/03/28 09:40:23;;;;;;;2.53;0.93;;;7.50;95.70;;;;;;5032573;28;20395;-60
2023/03/28 09:42:54;;;;;;;4.43;1.30;;;7.50;96.30;;;;;;5048724;28;20064;-60
2023/03/28 09:45:25;;;;;;;8.55;1.88;;;7.50;96.80;;;;;;5034076;28;20086;-60
2023/03/28 09:47:52;;;;;;;9.07;1.90;;;7.50;96.00;;;;;;5035003;28;20120;-60
2023/03/28 09:50:19;;;;;;;4.95;1.70;;;7.60;96.90;;;;;;5017724;28;20052;-60
2023/03/28 09:52:48;;;;;;;4.75;1.70;;;7.60;96.50;;;;;;5052446;28;20036;-60
2023/03/28 09:55:20;;;;;;;8.38;1.67;;;7.60;96.80;;;;;;5034256;28;20367;-60
2023/03/28 09:58:09;;;;;;;4.22;1.42;;;7.50;97.20;;;;;;5052735;28;20033;-60
2023/03/28 10:00:41;;;;;;;7.35;1.67;;;7.60;97.20;;;;;;5035005;28;20526;-60
2023/03/28 10:03:33;;;;;;;5.72;1.95;;;7.60;97.30;;;;;;5034190;28;20041;-60
2023/03/28 10:06:17;;;;;;;9.20;1.77;;;7.60;96.80;;;;;;5052108;28;20045;-60
2023/03/28 10:08:43;;;;;;;5.60;1.73;;;7.70;97.90;;;;;;5034349;28;20056;-60
2023/03/28 10:11:14;;;;;;;5.63;2.05;;;7.80;97.70;;;;;;5033984;28;20383;-60
2023/03/28 10:13:44;;;;;;;6.68;1.65;;;7.70;96.60;;;;;;5051467;28;20478;-60
2023/03/28 10:16:13;;;;;;;4.82;1.50;;;7.80;96.90;;;;;;5033783;28;20052;-60
2023/03/28 10:18:40;;;;;;;5.93;2.00;;;7.90;97.00;;;;;;5017977;28;20052;-60
2023/03/28 10:21:19;;;;;;;5.93;1.92;;;7.80;96.70;;;;;;5033245;28;20083;-60
2023/03/28 10:23:57;;;;;;;11.13;2.20;;;7.90;96.80;;;;;;5034391;28;20494;-60
2023/03/28 10:26:25;;;;;;;6.95;2.15;;;7.80;96.80;;;;;;5033539;28;20486;-60
2023/03/28 10:28:53;;;;;;;3.92;1.70;;;8.00;97.70;;;;;;5034436;28;20044;-60
2023/03/28 10:31:28;;;;;;;6.88;1.80;;;8.10;97.30;;;;;;5051411;28;20045;-60
2023/03/28 10:33:55;;;;;;;;;;;8.10;97.30;;;;;;5051913;28;20112;-60
2023/03/28 10:36:42;;;;;;;6.20;2.08;;;8.10;97.30;;;;;;5033433;28;19928;-60
2023/03/28 10:39:22;;;;;;;5.60;2.25;;;8.10;96.60;;;;;;5033595;28;20509;-60
2023/03/28 10:41:54;;;;;;;9.98;2.40;;;8.10;97.00;;;;;;5033631;28;20053;-60
2023/03/28 10:44:39;;;;;;;5.45;1.98;;;8.00;97.30;;;;;;5033665;28;20159;-60
2023/03/28 10:47:13;;;;;;;5.78;1.95;;;8.00;98.00;;;;;;5051209;28;20045;-60
2023/03/28 10:49:45;;;;;;;6.25;2.40;;;8.00;97.90;;;;;;5052167;28;20041;-60
2023/03/28 10:52:38;;;;;;;6.40;2.55;;;8.00;97.90;;;;;;5033467;28;20040;-60
2023/03/28 10:55:16;;;;;;;8.25;2.60;;;8.10;98.00;;;;;;5034023;28;20045;-60
2023/03/28 10:58:04;;;;;;;5.68;2.38;;;8.30;98.70;;;;;;5051858;28;20119;-60
2023/03/28 11:00:44;;;;;;;4.95;2.00;;;8.30;98.10;;;;;;5034129;28;20080;-60
2023/03/28 11:03:16;;;;;;;5.88;2.30;;;8.20;97.80;;;;;;5032843;28;20045;-60
2023/03/28 11:05:56;;;;;;;6.93;2.38;;;8.20;98.20;;;;;;5017443;28;20048;-60
2023/03/28 11:08:27;;;;;;;4.75;2.72;;;8.30;97.80;;;;;;5050738;28;20041;-60
2023/03/28 11:11:34;;;;;;;5.60;2.33;;;8.50;98.20;;;;;;5033824;28;20055;-60
2023/03/28 11:14:27;;;;;;;7.18;2.60;;;8.60;97.80;;;;;;5032465;28;20375;-60
2023/03/28 11:17:21;;;;;;;5.28;2.30;;;8.50;97.50;;;;;;5051324;28;20041;-60
2023/03/28 11:20:04;;;;;;;6.63;2.40;;;8.50;97.70;;;;;;5051502;28;20090;-60
2023/03/28 11:22:55;;;;;;;6.57;2.65;;;8.40;98.20;;;;;;5033213;28;20037;-60
2023/03/28 11:25:36;;;;;;;5.68;2.53;;;8.30;97.10;;;;;;5053522;28;20382;-60
2023/03/28 11:28:19;;;;;;;9.10;3.17;;;8.30;97.30;;;;;;5037624;28;20490;-60
2023/03/28 11:30:50;;;;;;;9.75;2.95;;;8.30;97.50;;;;;;5055068;28;20052;-60
2023/03/28 11:33:20;;;;;;;5.88;2.75;;;8.30;97.10;;;;;;5054736;28;20386;-60
2023/03/28 11:36:06;;;;;;;9.77;3.28;;;8.40;97.30;;;;;;5037749;28;20371;-60
2023/03/28 11:38:34;;;;;;;5.97;2.35;;;8.40;97.40;;;;;;5036825;28;20075;-60
2023/03/28 11:41:14;;;;;;;7.43;2.78;;;8.60;97.70;;;;;;5055096;28;20080;-61
2023/03/28 11:43:54;;;;;;;7.05;2.60;;;8.80;96.30;;;;;;5037067;28;20163;-60
2023/03/28 11:46:39;;;;;;;10.98;3.92;;;8.80;97.10;;;;;;5054459;28;20379;-60
2023/03/28 11:49:05;;;;;;;8.05;2.60;;;8.90;96.60;;;;;;5054532;28;20186;-60
2023/03/28 11:51:45;;;;;;;7.05;2.67;;;8.90;96.20;;;;;;5020147;28;20557;-60
2023/03/28 11:54:22;;;;;;;5.05;2.60;;;8.90;95.60;;;;;;5036775;28;20381;-60
2023/03/28 11:56:54;;;;;;;7.10;2.40;;;9.00;95.40;;;;;;5055179;28;20052;-60
2023/03/28 11:59:29;;;;;;;10.65;3.25;;;8.90;95.20;;;;;;5036211;28;20611;-60
2023/03/28 12:01:59;;;;;;;;;;;9.00;95.80;;;;;;5037351;28;20043;-60
2023/03/28 12:04:47;;;;;;;9.25;3.55;;;9.00;94.80;;;;;;5036118;28;20381;-60
2023/03/28 12:07:36;;;;;;;8.10;2.42;;;9.00;95.40;;;;;;5036290;28;20549;-60
2023/03/28 12:10:19;;;;;;;8.75;4.28;;;9.20;95.60;;;;;;5036534;28;20049;-60
2023/03/28 12:12:54;;;;;;;10.60;3.75;;;9.40;95.10;;;;;;5036291;28;20102;-60
2023/03/28 12:15:21;;;;;;;;;;;9.40;95.40;;;;;;5036783;28;20060;-60
2023/03/28 12:17:51;;;;;;;9.07;3.90;;;9.40;95.50;;;;;;5054538;28;19917;-60
2023/03/28 12:20:28;;;;;;;7.75;4.03;;;9.40;95.70;;;;;;5035508;28;20032;-60
2023/03/28 12:23:02;;;;;;;7.38;2.92;;;9.30;95.10;;;;;;5036551;28;20153;-60
2023/03/28 12:25:37;;;;;;;8.88;2.95;;;9.30;95.00;;;;;;5020190;28;20041;-60
2023/03/28 12:28:24;;;;;;;6.90;2.83;;;9.20;95.20;;;;;;5036394;28;20037;-60
2023/03/28 12:31:26;;;;;;;8.25;2.90;;;9.10;94.50;;;;;;5054166;28;20049;-60
2023/03/28 12:34:24;;;;;;;9.32;3.53;;;9.10;94.70;;;;;;4986699;28;20127;-60
2023/03/28 12:37:00;;;;;;;11.27;3.25;;;9.10;94.50;;;;;;5050649;28;20064;-60
2023/03/28 12:39:53;;;;;;;6.95;3.67;;;9.20;94.50;;;;;;5046323;28;20091;-61
2023/03/28 12:42:22;;;;;;;10.27;3.20;;;9.20;94.20;;;;;;5002148;28;20054;-59
2023/03/28 12:45:08;;;;;;;8.63;3.60;;;9.10;94.20;;;;;;5003639;28;20124;-60
2023/03/28 12:47:40;;;;;;;8.75;3.45;;;9.10;93.80;;;;;;5003076;28;20092;-60
2023/03/28 12:50:43;;;;;;;9.32;3.95;;;9.00;94.60;;;;;;5033680;28;20064;-60
2023/03/28 12:53:11;;;;;;;8.77;2.83;;;9.00;94.60;;;;;;4973683;28;20391;-69
2023/03/28 12:55:43;;;;;;;7.47;3.10;;;9.10;94.50;;;;;;4994861;28;20041;-61
2023/03/28 12:58:22;;;;;;;9.55;3.42;;;9.10;94.60;;;;;;5024691;28;20048;-60
2023/03/28 13:01:06;;;;;;;8.70;3.90;;;9.10;94.50;;;;;;4994639;28;20046;-60
2023/03/28 13:03:50;;;;;;;11.40;3.30;;;9.10;94.20;;;;;;5009992;28;20038;-60
2023/03/28 13:07:07;;;;;;;7.88;3.70;;;9.00;94.60;;;;;;5019235;28;20107;-60
2023/03/28 13:09:54;;;;;;;8.90;3.95;;;9.00;94.50;;;;;;4926814;29;20044;-61
2023/03/28 13:12:29;;;;;;;9.98;3.65;;;9.00;94.50;;;;;;5005010;28;20136;-61
2023/03/28 13:15:21;;;;;;;6.63;3.42;;;9.00;94.20;;;;;;4993690;28;20065;-61
2023/03/28 13:18:08;;;;;;;6.95;3.35;;;9.00;93.10;;;;;;4999813;28;20120;-61
2023/03/28 13:20:42;;;;;;;7.45;3.05;;;9.10;93.60;;;;;;5005353;28;20068;-61
2023/03/28 13:23:36;;;;;;;7.07;3.88;;;9.20;93.10;;;;;;4975280;28;20284;-61